Terminal Aerodrome Forecast
Issued by NWS

Home | Current Version | Previous Version | Text Only | Print | Product List | Glossary On
Versions: 1 2 3 4 5 6 7 8 9 10 11 12 13 14 15 16 17 18 19 20 21 22 23 24 25
030
FTUS41 KGYX 061120 AAB
TAFLEB
TAF AMD
KLEB 061120Z 0611/0706 VRB03KT P6SM SKC
     FM061400 20007KT P6SM SCT050 SCT100
     FM062200 19006KT P6SM BKN035=

USA.gov is the U.S. government's official web portal to all federal, state and local government web resources and services.